Hlavní strana
METAR-TAF:

METAR-TAF

Letiště :

Mykolajiv, Ukrajina

zeměpisná šířka: 47-03-29N, zeměpisná délka: 031-55-15E, výška: 56 m

Aktuální stav počasí

Zpráva byla vytvořena před 5 hodinami a 58 minutami, v 19:00 UTC
Jihojihozápadní vítr 16 kt
Teplota 12°C
Vlhkost vzduchu 88%
Tlak 1013 hPa
Viditelnost 10 km a více
Žádná oblačnost pod 1500 m, nevyskytují se cumulonimby.

METAR: UKON 211900Z 20008MPS CAVOK 12/10 Q1013 R22/090075 NOSIG

Čas: 03:58 (00:58 UTC)

Předpověď počasí

Zpráva byla vytvořena před 7 hodinami a 55 minutami, v 17:03 UTC
Předpověď platná od 21 v 18 UTC do 22 v 03 UTC
Jihojihozápadní vítr 12 kt s nárazy do 29 kt
Viditelnost: 2100 m
Polojasno ve výšce 300 ft
Oblačno až skoro zataženo ve výšce 700 ft
Polojasno ve výšce 2000 ft, Cumulonimbus.
kouřmo
Pravděpodobnost 40% :
Dočasný
od 21 v 18 UTC do 22 v 03 UTC
Viditelnost: 0200 m
ve výšce 100 ft
mlha

TAF: UKON 211703Z 2118/2203 21006G15MPS 2100 BR SCT003 BKN007 SCT020CB PROB40 TEMPO 2118/2203 0200 FG VV001

Stav a předpovědi počasí z více než 4 000 letišť (zprávy METAR a TAF).

Červené a žluté tečky na mapě představují dostupné meteorologické stanice.

Když kurzor umístíte na tečku, zobrazí se název stanice.

Pak kliknutím zobrazíte stav a předpověď počasí.

Chcete-li změnit mapu, kliknutím na zelené tlačítko se znaménkem +mapu přiblížíte, kliknutím na zelené tlačítko se znaménkem – mapu oddálíte a kliknutím na zelené šipky přejdete na sousední mapy.


METAR-TAF: